sensor_id;sensor_type;location;lat;lon;timestamp;P1;durP1;ratioP1;P2;durP2;ratioP2
68216;SDS011;55037;52.354;4.992;2023-07-31T00:02:13;8.18;;;2.40;;
68216;SDS011;55037;52.354;4.992;2023-07-31T00:04:43;19.33;;;3.72;;
68216;SDS011;55037;52.354;4.992;2023-07-31T00:07:11;14.80;;;3.47;;
68216;SDS011;55037;52.354;4.992;2023-07-31T00:09:38;15.30;;;3.05;;
68216;SDS011;55037;52.354;4.992;2023-07-31T00:12:05;13.25;;;3.50;;
68216;SDS011;55037;52.354;4.992;2023-07-31T00:14:33;11.00;;;3.20;;
68216;SDS011;55037;52.354;4.992;2023-07-31T00:17:00;17.63;;;3.58;;
68216;SDS011;55037;52.354;4.992;2023-07-31T00:19:28;9.95;;;3.17;;
68216;SDS011;55037;52.354;4.992;2023-07-31T00:21:55;17.85;;;3.20;;
68216;SDS011;55037;52.354;4.992;2023-07-31T00:24:22;9.45;;;3.08;;
68216;SDS011;55037;52.354;4.992;2023-07-31T00:26:50;11.50;;;3.20;;
68216;SDS011;55037;52.354;4.992;2023-07-31T00:29:17;12.90;;;3.55;;
68216;SDS011;55037;52.354;4.992;2023-07-31T00:31:44;14.05;;;3.95;;
68216;SDS011;55037;52.354;4.992;2023-07-31T00:34:12;13.00;;;3.00;;
68216;SDS011;55037;52.354;4.992;2023-07-31T00:36:39;9.82;;;3.05;;
68216;SDS011;55037;52.354;4.992;2023-07-31T00:39:07;10.93;;;3.70;;
68216;SDS011;55037;52.354;4.992;2023-07-31T00:41:35;11.25;;;3.45;;
68216;SDS011;55037;52.354;4.992;2023-07-31T00:44:02;12.23;;;3.30;;
68216;SDS011;55037;52.354;4.992;2023-07-31T00:46:29;11.95;;;3.55;;
68216;SDS011;55037;52.354;4.992;2023-07-31T00:48:57;12.88;;;3.47;;
68216;SDS011;55037;52.354;4.992;2023-07-31T00:51:24;15.73;;;4.50;;
68216;SDS011;55037;52.354;4.992;2023-07-31T00:53:52;11.38;;;3.65;;
68216;SDS011;55037;52.354;4.992;2023-07-31T00:56:21;13.13;;;3.60;;
68216;SDS011;55037;52.354;4.992;2023-07-31T00:58:49;12.63;;;3.63;;
68216;SDS011;55037;52.354;4.992;2023-07-31T01:01:16;18.63;;;5.53;;
68216;SDS011;55037;52.354;4.992;2023-07-31T01:03:43;17.65;;;4.93;;
68216;SDS011;55037;52.354;4.992;2023-07-31T01:06:14;20.67;;;6.22;;
68216;SDS011;55037;52.354;4.992;2023-07-31T01:09:01;13.77;;;3.83;;
68216;SDS011;55037;52.354;4.992;2023-07-31T01:11:38;15.98;;;4.90;;
68216;SDS011;55037;52.354;4.992;2023-07-31T01:14:13;19.83;;;4.28;;
68216;SDS011;55037;52.354;4.992;2023-07-31T01:16:40;16.20;;;3.70;;
68216;SDS011;55037;52.354;4.992;2023-07-31T01:19:08;29.25;;;3.80;;
68216;SDS011;55037;52.354;4.992;2023-07-31T01:24:30;21.52;;;4.13;;
68216;SDS011;55037;52.354;4.992;2023-07-31T01:27:21;17.48;;;4.07;;
68216;SDS011;55037;52.354;4.992;2023-07-31T01:29:56;21.67;;;5.22;;
68216;SDS011;55037;52.354;4.992;2023-07-31T01:32:45;15.10;;;4.80;;
68216;SDS011;55037;52.354;4.992;2023-07-31T01:35:15;18.58;;;4.45;;
68216;SDS011;55037;52.354;4.992;2023-07-31T01:37:42;21.02;;;4.93;;
68216;SDS011;55037;52.354;4.992;2023-07-31T01:40:09;24.17;;;6.28;;
68216;SDS011;55037;52.354;4.992;2023-07-31T01:42:37;23.60;;;5.55;;
68216;SDS011;55037;52.354;4.992;2023-07-31T01:45:04;18.63;;;5.80;;
68216;SDS011;55037;52.354;4.992;2023-07-31T01:47:32;20.52;;;5.82;;
68216;SDS011;55037;52.354;4.992;2023-07-31T01:50:00;20.73;;;5.13;;
68216;SDS011;55037;52.354;4.992;2023-07-31T01:52:27;19.55;;;5.82;;
68216;SDS011;55037;52.354;4.992;2023-07-31T01:54:55;28.70;;;6.53;;
68216;SDS011;55037;52.354;4.992;2023-07-31T01:57:23;17.13;;;4.65;;
68216;SDS011;55037;52.354;4.992;2023-07-31T01:59:50;19.00;;;4.32;;
68216;SDS011;55037;52.354;4.992;2023-07-31T02:02:19;27.30;;;5.88;;
68216;SDS011;55037;52.354;4.992;2023-07-31T02:04:47;20.50;;;4.82;;
68216;SDS011;55037;52.354;4.992;2023-07-31T02:07:15;22.25;;;5.00;;
68216;SDS011;55037;52.354;4.992;2023-07-31T02:09:42;23.60;;;5.35;;
68216;SDS011;55037;52.354;4.992;2023-07-31T02:12:09;31.80;;;7.05;;
68216;SDS011;55037;52.354;4.992;2023-07-31T02:14:37;27.92;;;5.72;;
68216;SDS011;55037;52.354;4.992;2023-07-31T02:17:04;22.25;;;5.35;;
68216;SDS011;55037;52.354;4.992;2023-07-31T02:19:32;22.70;;;5.95;;
68216;SDS011;55037;52.354;4.992;2023-07-31T02:21:59;24.80;;;5.93;;
68216;SDS011;55037;52.354;4.992;2023-07-31T02:24:26;33.03;;;6.57;;
68216;SDS011;55037;52.354;4.992;2023-07-31T02:26:54;26.90;;;5.22;;
68216;SDS011;55037;52.354;4.992;2023-07-31T02:29:22;31.17;;;6.35;;
68216;SDS011;55037;52.354;4.992;2023-07-31T02:31:49;26.55;;;6.53;;
68216;SDS011;55037;52.354;4.992;2023-07-31T02:34:16;35.05;;;8.65;;
68216;SDS011;55037;52.354;4.992;2023-07-31T02:36:45;28.10;;;6.18;;
68216;SDS011;55037;52.354;4.992;2023-07-31T02:39:13;28.70;;;7.13;;
68216;SDS011;55037;52.354;4.992;2023-07-31T02:41:40;28.83;;;8.32;;
68216;SDS011;55037;52.354;4.992;2023-07-31T02:44:08;27.83;;;5.85;;
68216;SDS011;55037;52.354;4.992;2023-07-31T02:46:37;31.85;;;6.93;;
68216;SDS011;55037;52.354;4.992;2023-07-31T02:49:04;24.33;;;6.03;;
68216;SDS011;55037;52.354;4.992;2023-07-31T02:51:32;23.00;;;6.35;;
68216;SDS011;55037;52.354;4.992;2023-07-31T02:53:59;19.55;;;5.25;;
68216;SDS011;55037;52.354;4.992;2023-07-31T02:56:26;29.65;;;7.20;;
68216;SDS011;55037;52.354;4.992;2023-07-31T02:58:54;27.75;;;6.82;;
68216;SDS011;55037;52.354;4.992;2023-07-31T03:01:21;22.27;;;5.43;;
68216;SDS011;55037;52.354;4.992;2023-07-31T03:03:48;31.15;;;5.72;;
68216;SDS011;55037;52.354;4.992;2023-07-31T03:06:16;30.60;;;7.63;;
68216;SDS011;55037;52.354;4.992;2023-07-31T03:08:43;33.58;;;7.30;;
68216;SDS011;55037;52.354;4.992;2023-07-31T03:11:10;27.50;;;6.65;;
68216;SDS011;55037;52.354;4.992;2023-07-31T03:13:38;24.83;;;6.82;;
68216;SDS011;55037;52.354;4.992;2023-07-31T03:16:05;19.00;;;5.70;;
68216;SDS011;55037;52.354;4.992;2023-07-31T03:18:32;28.35;;;6.78;;
68216;SDS011;55037;52.354;4.992;2023-07-31T03:21:00;28.05;;;5.85;;
68216;SDS011;55037;52.354;4.992;2023-07-31T03:23:27;27.65;;;6.22;;
68216;SDS011;55037;52.354;4.992;2023-07-31T03:25:55;18.83;;;6.10;;
68216;SDS011;55037;52.354;4.992;2023-07-31T03:28:27;21.10;;;5.40;;
68216;SDS011;55037;52.354;4.992;2023-07-31T03:30:54;25.77;;;6.60;;
68216;SDS011;55037;52.354;4.992;2023-07-31T03:33:22;30.83;;;6.95;;
68216;SDS011;55037;52.354;4.992;2023-07-31T03:35:50;28.90;;;7.05;;
68216;SDS011;55037;52.354;4.992;2023-07-31T03:38:18;24.10;;;5.80;;
68216;SDS011;55037;52.354;4.992;2023-07-31T03:40:45;18.45;;;6.10;;
68216;SDS011;55037;52.354;4.992;2023-07-31T03:43:13;25.52;;;7.28;;
68216;SDS011;55037;52.354;4.992;2023-07-31T03:45:42;24.77;;;7.22;;
68216;SDS011;55037;52.354;4.992;2023-07-31T03:48:10;26.48;;;6.68;;
68216;SDS011;55037;52.354;4.992;2023-07-31T03:50:38;26.65;;;6.10;;
68216;SDS011;55037;52.354;4.992;2023-07-31T03:53:05;26.00;;;5.75;;
68216;SDS011;55037;52.354;4.992;2023-07-31T03:55:32;29.63;;;7.72;;
68216;SDS011;55037;52.354;4.992;2023-07-31T03:58:00;24.65;;;6.10;;
68216;SDS011;55037;52.354;4.992;2023-07-31T04:00:27;27.38;;;6.18;;
68216;SDS011;55037;52.354;4.992;2023-07-31T04:02:54;23.52;;;6.50;;
68216;SDS011;55037;52.354;4.992;2023-07-31T04:05:22;28.50;;;5.32;;
68216;SDS011;55037;52.354;4.992;2023-07-31T04:07:49;23.75;;;5.63;;
68216;SDS011;55037;52.354;4.992;2023-07-31T04:10:17;27.63;;;6.65;;
68216;SDS011;55037;52.354;4.992;2023-07-31T04:12:44;32.35;;;6.25;;
68216;SDS011;55037;52.354;4.992;2023-07-31T04:15:11;32.88;;;6.57;;
68216;SDS011;55037;52.354;4.992;2023-07-31T04:17:38;24.27;;;5.35;;
68216;SDS011;55037;52.354;4.992;2023-07-31T04:20:06;21.05;;;5.85;;
68216;SDS011;55037;52.354;4.992;2023-07-31T04:22:34;25.40;;;6.30;;
68216;SDS011;55037;52.354;4.992;2023-07-31T04:25:01;37.75;;;7.68;;
68216;SDS011;55037;52.354;4.992;2023-07-31T04:27:28;26.98;;;6.22;;
68216;SDS011;55037;52.354;4.992;2023-07-31T04:29:55;28.33;;;6.32;;
68216;SDS011;55037;52.354;4.992;2023-07-31T04:32:23;30.00;;;7.90;;
68216;SDS011;55037;52.354;4.992;2023-07-31T04:34:50;19.58;;;4.70;;
68216;SDS011;55037;52.354;4.992;2023-07-31T04:37:17;20.20;;;6.20;;
68216;SDS011;55037;52.354;4.992;2023-07-31T04:39:45;13.73;;;3.78;;
68216;SDS011;55037;52.354;4.992;2023-07-31T04:42:12;30.83;;;7.20;;
68216;SDS011;55037;52.354;4.992;2023-07-31T04:44:39;32.28;;;7.00;;
68216;SDS011;55037;52.354;4.992;2023-07-31T04:47:07;35.40;;;8.50;;
68216;SDS011;55037;52.354;4.992;2023-07-31T04:49:34;29.80;;;7.65;;
68216;SDS011;55037;52.354;4.992;2023-07-31T04:52:01;18.83;;;6.80;;
68216;SDS011;55037;52.354;4.992;2023-07-31T04:54:29;25.92;;;6.20;;
68216;SDS011;55037;52.354;4.992;2023-07-31T04:56:56;30.50;;;7.35;;
68216;SDS011;55037;52.354;4.992;2023-07-31T04:59:23;15.20;;;4.50;;
68216;SDS011;55037;52.354;4.992;2023-07-31T05:01:51;23.10;;;5.53;;
68216;SDS011;55037;52.354;4.992;2023-07-31T05:04:18;19.52;;;5.63;;
68216;SDS011;55037;52.354;4.992;2023-07-31T05:06:45;21.50;;;6.38;;
68216;SDS011;55037;52.354;4.992;2023-07-31T05:09:13;9.05;;;3.58;;
68216;SDS011;55037;52.354;4.992;2023-07-31T05:11:40;9.18;;;2.58;;
68216;SDS011;55037;52.354;4.992;2023-07-31T05:14:09;13.57;;;4.03;;
68216;SDS011;55037;52.354;4.992;2023-07-31T05:16:37;15.20;;;4.68;;
68216;SDS011;55037;52.354;4.992;2023-07-31T05:19:04;12.43;;;3.63;;
68216;SDS011;55037;52.354;4.992;2023-07-31T05:21:32;10.57;;;3.50;;
68216;SDS011;55037;52.354;4.992;2023-07-31T05:23:59;16.20;;;4.18;;
68216;SDS011;55037;52.354;4.992;2023-07-31T05:26:26;10.40;;;3.92;;
68216;SDS011;55037;52.354;4.992;2023-07-31T05:28:54;16.27;;;5.32;;
68216;SDS011;55037;52.354;4.992;2023-07-31T05:31:21;18.98;;;6.43;;
68216;SDS011;55037;52.354;4.992;2023-07-31T05:33:49;6.43;;;2.85;;
68216;SDS011;55037;52.354;4.992;2023-07-31T05:36:17;6.40;;;2.72;;
68216;SDS011;55037;52.354;4.992;2023-07-31T05:38:44;8.40;;;3.30;;
68216;SDS011;55037;52.354;4.992;2023-07-31T05:41:12;6.68;;;3.35;;
68216;SDS011;55037;52.354;4.992;2023-07-31T05:43:39;6.80;;;2.30;;
68216;SDS011;55037;52.354;4.992;2023-07-31T05:46:07;5.00;;;2.65;;
68216;SDS011;55037;52.354;4.992;2023-07-31T05:48:36;5.68;;;2.42;;
68216;SDS011;55037;52.354;4.992;2023-07-31T05:51:03;4.95;;;2.72;;
68216;SDS011;55037;52.354;4.992;2023-07-31T05:53:30;3.88;;;2.20;;
68216;SDS011;55037;52.354;4.992;2023-07-31T05:55:58;6.93;;;2.92;;
68216;SDS011;55037;52.354;4.992;2023-07-31T05:58:25;4.30;;;2.17;;
68216;SDS011;55037;52.354;4.992;2023-07-31T06:00:52;6.45;;;2.30;;
68216;SDS011;55037;52.354;4.992;2023-07-31T06:03:19;5.18;;;2.75;;
68216;SDS011;55037;52.354;4.992;2023-07-31T06:05:49;5.35;;;2.63;;
68216;SDS011;55037;52.354;4.992;2023-07-31T06:08:17;6.43;;;2.63;;
68216;SDS011;55037;52.354;4.992;2023-07-31T06:10:44;4.68;;;2.38;;
68216;SDS011;55037;52.354;4.992;2023-07-31T06:13:12;4.97;;;1.80;;
68216;SDS011;55037;52.354;4.992;2023-07-31T06:15:39;2.85;;;1.70;;
68216;SDS011;55037;52.354;4.992;2023-07-31T06:18:06;5.07;;;2.70;;
68216;SDS011;55037;52.354;4.992;2023-07-31T06:20:34;4.60;;;2.72;;
68216;SDS011;55037;52.354;4.992;2023-07-31T06:23:02;4.75;;;2.22;;
68216;SDS011;55037;52.354;4.992;2023-07-31T06:25:30;5.03;;;1.95;;
68216;SDS011;55037;52.354;4.992;2023-07-31T06:27:57;4.97;;;2.30;;
68216;SDS011;55037;52.354;4.992;2023-07-31T06:30:25;6.50;;;2.47;;
68216;SDS011;55037;52.354;4.992;2023-07-31T06:32:52;3.95;;;2.40;;
68216;SDS011;55037;52.354;4.992;2023-07-31T06:35:19;4.57;;;2.33;;
68216;SDS011;55037;52.354;4.992;2023-07-31T06:37:47;6.38;;;3.05;;
68216;SDS011;55037;52.354;4.992;2023-07-31T06:40:14;2.85;;;1.60;;
68216;SDS011;55037;52.354;4.992;2023-07-31T06:42:41;2.92;;;2.10;;
68216;SDS011;55037;52.354;4.992;2023-07-31T06:45:09;4.53;;;2.20;;
68216;SDS011;55037;52.354;4.992;2023-07-31T06:47:36;6.00;;;2.83;;
68216;SDS011;55037;52.354;4.992;2023-07-31T06:50:04;3.97;;;2.00;;
68216;SDS011;55037;52.354;4.992;2023-07-31T06:52:32;4.18;;;2.53;;
68216;SDS011;55037;52.354;4.992;2023-07-31T06:55:03;5.53;;;2.30;;
68216;SDS011;55037;52.354;4.992;2023-07-31T06:57:46;3.33;;;1.70;;
68216;SDS011;55037;52.354;4.992;2023-07-31T07:00:15;3.15;;;1.90;;
68216;SDS011;55037;52.354;4.992;2023-07-31T07:02:43;3.13;;;1.67;;
68216;SDS011;55037;52.354;4.992;2023-07-31T07:05:11;3.80;;;1.60;;
68216;SDS011;55037;52.354;4.992;2023-07-31T07:07:38;3.55;;;2.13;;
68216;SDS011;55037;52.354;4.992;2023-07-31T07:10:06;3.45;;;1.80;;
68216;SDS011;55037;52.354;4.992;2023-07-31T07:12:34;2.40;;;1.40;;
68216;SDS011;55037;52.354;4.992;2023-07-31T07:15:01;2.65;;;1.90;;
68216;SDS011;55037;52.354;4.992;2023-07-31T07:17:29;2.22;;;1.42;;
68216;SDS011;55037;52.354;4.992;2023-07-31T07:20:00;2.78;;;1.70;;
68216;SDS011;55037;52.354;4.992;2023-07-31T07:22:28;3.40;;;1.73;;
68216;SDS011;55037;52.354;4.992;2023-07-31T07:24:57;3.33;;;1.50;;
68216;SDS011;55037;52.354;4.992;2023-07-31T07:27:25;2.63;;;1.40;;
68216;SDS011;55037;52.354;4.992;2023-07-31T07:29:52;2.60;;;1.50;;
68216;SDS011;55037;52.354;4.992;2023-07-31T07:32:20;4.22;;;1.60;;
68216;SDS011;55037;52.354;4.992;2023-07-31T07:34:48;3.65;;;1.73;;
68216;SDS011;55037;52.354;4.992;2023-07-31T07:37:15;1.80;;;1.23;;
68216;SDS011;55037;52.354;4.992;2023-07-31T07:39:43;2.53;;;1.40;;
68216;SDS011;55037;52.354;4.992;2023-07-31T07:42:11;2.72;;;1.48;;
68216;SDS011;55037;52.354;4.992;2023-07-31T07:44:38;4.70;;;1.60;;
68216;SDS011;55037;52.354;4.992;2023-07-31T07:47:06;2.85;;;1.45;;
68216;SDS011;55037;52.354;4.992;2023-07-31T07:49:34;2.05;;;1.02;;
68216;SDS011;55037;52.354;4.992;2023-07-31T07:52:02;3.03;;;1.88;;
68216;SDS011;55037;52.354;4.992;2023-07-31T07:54:30;3.80;;;1.63;;
68216;SDS011;55037;52.354;4.992;2023-07-31T07:56:57;1.92;;;1.13;;
68216;SDS011;55037;52.354;4.992;2023-07-31T07:59:25;2.33;;;1.40;;
68216;SDS011;55037;52.354;4.992;2023-07-31T08:01:52;3.35;;;1.80;;
68216;SDS011;55037;52.354;4.992;2023-07-31T08:04:20;2.70;;;1.00;;
68216;SDS011;55037;52.354;4.992;2023-07-31T08:06:47;2.63;;;1.15;;
68216;SDS011;55037;52.354;4.992;2023-07-31T08:09:14;2.78;;;1.58;;
68216;SDS011;55037;52.354;4.992;2023-07-31T08:11:41;3.03;;;1.20;;
68216;SDS011;55037;52.354;4.992;2023-07-31T08:14:09;6.15;;;1.75;;
68216;SDS011;55037;52.354;4.992;2023-07-31T08:16:36;2.63;;;1.50;;
68216;SDS011;55037;52.354;4.992;2023-07-31T08:19:04;6.43;;;2.35;;
68216;SDS011;55037;52.354;4.992;2023-07-31T08:21:31;6.75;;;1.55;;
68216;SDS011;55037;52.354;4.992;2023-07-31T08:23:59;4.63;;;1.77;;
68216;SDS011;55037;52.354;4.992;2023-07-31T08:26:26;4.68;;;1.67;;
68216;SDS011;55037;52.354;4.992;2023-07-31T08:28:53;6.90;;;2.17;;
68216;SDS011;55037;52.354;4.992;2023-07-31T08:31:21;5.28;;;2.30;;
68216;SDS011;55037;52.354;4.992;2023-07-31T08:33:48;7.25;;;1.80;;
68216;SDS011;55037;52.354;4.992;2023-07-31T08:36:15;6.82;;;2.20;;
68216;SDS011;55037;52.354;4.992;2023-07-31T08:38:43;7.53;;;2.60;;
68216;SDS011;55037;52.354;4.992;2023-07-31T08:41:11;7.72;;;2.40;;
68216;SDS011;55037;52.354;4.992;2023-07-31T08:43:40;4.88;;;2.28;;
68216;SDS011;55037;52.354;4.992;2023-07-31T08:46:08;6.05;;;2.15;;
68216;SDS011;55037;52.354;4.992;2023-07-31T08:48:37;5.57;;;2.08;;
68216;SDS011;55037;52.354;4.992;2023-07-31T08:51:05;2.90;;;1.55;;
68216;SDS011;55037;52.354;4.992;2023-07-31T08:53:33;6.22;;;1.92;;
68216;SDS011;55037;52.354;4.992;2023-07-31T08:56:01;8.10;;;2.90;;
68216;SDS011;55037;52.354;4.992;2023-07-31T08:58:31;6.68;;;2.28;;
68216;SDS011;55037;52.354;4.992;2023-07-31T09:01:00;7.82;;;1.90;;
68216;SDS011;55037;52.354;4.992;2023-07-31T09:03:30;5.97;;;1.77;;
68216;SDS011;55037;52.354;4.992;2023-07-31T09:06:02;7.13;;;2.85;;
68216;SDS011;55037;52.354;4.992;2023-07-31T09:08:32;11.18;;;2.50;;
68216;SDS011;55037;52.354;4.992;2023-07-31T09:11:01;6.20;;;2.47;;
68216;SDS011;55037;52.354;4.992;2023-07-31T09:13:31;8.23;;;2.63;;
68216;SDS011;55037;52.354;4.992;2023-07-31T09:15:59;12.23;;;2.88;;
68216;SDS011;55037;52.354;4.992;2023-07-31T09:18:26;14.27;;;3.13;;
68216;SDS011;55037;52.354;4.992;2023-07-31T09:21:00;10.75;;;2.20;;
68216;SDS011;55037;52.354;4.992;2023-07-31T09:23:42;7.88;;;2.58;;
68216;SDS011;55037;52.354;4.992;2023-07-31T09:26:10;12.60;;;3.33;;
68216;SDS011;55037;52.354;4.992;2023-07-31T09:28:38;19.52;;;3.95;;
68216;SDS011;55037;52.354;4.992;2023-07-31T09:31:05;19.80;;;4.35;;
68216;SDS011;55037;52.354;4.992;2023-07-31T09:33:33;19.10;;;4.10;;
68216;SDS011;55037;52.354;4.992;2023-07-31T09:36:01;13.80;;;2.45;;
68216;SDS011;55037;52.354;4.992;2023-07-31T09:38:31;10.55;;;2.33;;
68216;SDS011;55037;52.354;4.992;2023-07-31T09:40:59;19.05;;;3.75;;
68216;SDS011;55037;52.354;4.992;2023-07-31T09:43:26;11.10;;;2.65;;
68216;SDS011;55037;52.354;4.992;2023-07-31T09:45:55;15.52;;;3.22;;
68216;SDS011;55037;52.354;4.992;2023-07-31T09:48:25;12.35;;;3.25;;
68216;SDS011;55037;52.354;4.992;2023-07-31T09:50:54;13.50;;;2.80;;
68216;SDS011;55037;52.354;4.992;2023-07-31T09:53:27;11.90;;;3.00;;
68216;SDS011;55037;52.354;4.992;2023-07-31T09:55:58;8.27;;;2.58;;
68216;SDS011;55037;52.354;4.992;2023-07-31T09:58:26;15.85;;;3.22;;
68216;SDS011;55037;52.354;4.992;2023-07-31T10:00:57;10.57;;;2.58;;
68216;SDS011;55037;52.354;4.992;2023-07-31T10:03:26;10.95;;;2.83;;
68216;SDS011;55037;52.354;4.992;2023-07-31T10:05:56;17.85;;;3.92;;
68216;SDS011;55037;52.354;4.992;2023-07-31T10:08:30;7.88;;;2.15;;
68216;SDS011;55037;52.354;4.992;2023-07-31T10:10:59;12.90;;;2.80;;
68216;SDS011;55037;52.354;4.992;2023-07-31T10:13:29;13.32;;;3.22;;
68216;SDS011;55037;52.354;4.992;2023-07-31T10:15:58;12.18;;;3.60;;
68216;SDS011;55037;52.354;4.992;2023-07-31T10:18:27;13.20;;;2.97;;
68216;SDS011;55037;52.354;4.992;2023-07-31T10:20:56;11.32;;;3.17;;
68216;SDS011;55037;52.354;4.992;2023-07-31T10:23:24;7.65;;;2.40;;
68216;SDS011;55037;52.354;4.992;2023-07-31T10:25:52;14.55;;;3.58;;
68216;SDS011;55037;52.354;4.992;2023-07-31T10:28:21;13.05;;;3.15;;
68216;SDS011;55037;52.354;4.992;2023-07-31T10:30:49;10.90;;;2.97;;
68216;SDS011;55037;52.354;4.992;2023-07-31T10:33:18;11.60;;;2.88;;
68216;SDS011;55037;52.354;4.992;2023-07-31T10:35:47;16.20;;;3.63;;
68216;SDS011;55037;52.354;4.992;2023-07-31T10:38:15;10.07;;;3.20;;
68216;SDS011;55037;52.354;4.992;2023-07-31T10:40:42;10.05;;;3.03;;
68216;SDS011;55037;52.354;4.992;2023-07-31T10:43:23;15.48;;;3.75;;
68216;SDS011;55037;52.354;4.992;2023-07-31T10:45:54;8.77;;;2.40;;
68216;SDS011;55037;52.354;4.992;2023-07-31T10:48:21;8.68;;;2.80;;
68216;SDS011;55037;52.354;4.992;2023-07-31T10:50:51;12.05;;;4.00;;
68216;SDS011;55037;52.354;4.992;2023-07-31T10:55:52;9.18;;;2.83;;
68216;SDS011;55037;52.354;4.992;2023-07-31T10:58:20;10.50;;;3.17;;
68216;SDS011;55037;52.354;4.992;2023-07-31T11:00:48;14.10;;;3.50;;
68216;SDS011;55037;52.354;4.992;2023-07-31T11:03:17;10.47;;;2.67;;
68216;SDS011;55037;52.354;4.992;2023-07-31T11:05:46;11.65;;;2.97;;
68216;SDS011;55037;52.354;4.992;2023-07-31T11:10:49;15.32;;;4.28;;
68216;SDS011;55037;52.354;4.992;2023-07-31T11:16:00;8.50;;;2.80;;
68216;SDS011;55037;52.354;4.992;2023-07-31T11:18:28;8.50;;;2.22;;
68216;SDS011;55037;52.354;4.992;2023-07-31T11:20:55;7.85;;;2.40;;
68216;SDS011;55037;52.354;4.992;2023-07-31T11:23:23;13.45;;;2.80;;
68216;SDS011;55037;52.354;4.992;2023-07-31T11:25:50;11.32;;;3.30;;
68216;SDS011;55037;52.354;4.992;2023-07-31T11:28:19;6.17;;;2.07;;
68216;SDS011;55037;52.354;4.992;2023-07-31T11:30:47;8.55;;;2.97;;
68216;SDS011;55037;52.354;4.992;2023-07-31T11:33:14;11.75;;;3.65;;
68216;SDS011;55037;52.354;4.992;2023-07-31T11:35:43;12.20;;;3.25;;
68216;SDS011;55037;52.354;4.992;2023-07-31T11:40:56;7.33;;;2.43;;
68216;SDS011;55037;52.354;4.992;2023-07-31T11:43:25;11.98;;;3.00;;
68216;SDS011;55037;52.354;4.992;2023-07-31T11:45:56;10.77;;;3.35;;
68216;SDS011;55037;52.354;4.992;2023-07-31T11:48:31;9.80;;;3.30;;
68216;SDS011;55037;52.354;4.992;2023-07-31T11:51:06;11.10;;;2.80;;
68216;SDS011;55037;52.354;4.992;2023-07-31T11:53:43;11.67;;;3.00;;
68216;SDS011;55037;52.354;4.992;2023-07-31T11:56:18;6.90;;;2.60;;
68216;SDS011;55037;52.354;4.992;2023-07-31T11:58:47;8.60;;;2.30;;
68216;SDS011;55037;52.354;4.992;2023-07-31T12:01:18;6.93;;;2.10;;
68216;SDS011;55037;52.354;4.992;2023-07-31T12:03:47;9.65;;;3.05;;
68216;SDS011;55037;52.354;4.992;2023-07-31T12:06:16;6.97;;;2.53;;
68216;SDS011;55037;52.354;4.992;2023-07-31T12:08:43;14.35;;;3.15;;
68216;SDS011;55037;52.354;4.992;2023-07-31T12:11:10;7.50;;;2.75;;
68216;SDS011;55037;52.354;4.992;2023-07-31T12:13:38;6.78;;;2.75;;
68216;SDS011;55037;52.354;4.992;2023-07-31T12:16:05;9.05;;;3.13;;
68216;SDS011;55037;52.354;4.992;2023-07-31T12:18:34;11.93;;;3.63;;
68216;SDS011;55037;52.354;4.992;2023-07-31T12:21:04;7.03;;;2.55;;
68216;SDS011;55037;52.354;4.992;2023-07-31T12:23:33;7.28;;;2.15;;
68216;SDS011;55037;52.354;4.992;2023-07-31T12:26:11;10.88;;;3.50;;
68216;SDS011;55037;52.354;4.992;2023-07-31T12:31:27;7.77;;;2.43;;
68216;SDS011;55037;52.354;4.992;2023-07-31T12:33:55;8.02;;;3.22;;
68216;SDS011;55037;52.354;4.992;2023-07-31T12:36:23;7.45;;;2.45;;
68216;SDS011;55037;52.354;4.992;2023-07-31T12:38:51;9.77;;;3.15;;
68216;SDS011;55037;52.354;4.992;2023-07-31T12:41:19;7.03;;;2.90;;
68216;SDS011;55037;52.354;4.992;2023-07-31T12:43:46;12.03;;;3.17;;
68216;SDS011;55037;52.354;4.992;2023-07-31T12:46:14;4.70;;;1.85;;
68216;SDS011;55037;52.354;4.992;2023-07-31T12:48:41;8.70;;;2.70;;
68216;SDS011;55037;52.354;4.992;2023-07-31T12:51:09;5.18;;;2.38;;
68216;SDS011;55037;52.354;4.992;2023-07-31T12:53:36;14.32;;;2.35;;
68216;SDS011;55037;52.354;4.992;2023-07-31T12:56:03;8.80;;;2.60;;
68216;SDS011;55037;52.354;4.992;2023-07-31T12:58:31;5.60;;;2.33;;
68216;SDS011;55037;52.354;4.992;2023-07-31T13:00:58;6.32;;;1.92;;
68216;SDS011;55037;52.354;4.992;2023-07-31T13:03:26;7.13;;;2.42;;
68216;SDS011;55037;52.354;4.992;2023-07-31T13:05:54;10.38;;;3.08;;
68216;SDS011;55037;52.354;4.992;2023-07-31T13:08:21;6.50;;;2.33;;
68216;SDS011;55037;52.354;4.992;2023-07-31T13:10:49;5.32;;;2.10;;
68216;SDS011;55037;52.354;4.992;2023-07-31T13:13:16;4.82;;;1.98;;
68216;SDS011;55037;52.354;4.992;2023-07-31T13:15:43;6.30;;;2.67;;
68216;SDS011;55037;52.354;4.992;2023-07-31T13:18:11;7.68;;;2.67;;
68216;SDS011;55037;52.354;4.992;2023-07-31T13:20:39;4.27;;;1.87;;
68216;SDS011;55037;52.354;4.992;2023-07-31T13:23:06;7.45;;;2.75;;
68216;SDS011;55037;52.354;4.992;2023-07-31T13:25:34;5.70;;;2.28;;
68216;SDS011;55037;52.354;4.992;2023-07-31T13:28:01;4.38;;;1.70;;
68216;SDS011;55037;52.354;4.992;2023-07-31T13:30:29;10.25;;;2.17;;
68216;SDS011;55037;52.354;4.992;2023-07-31T13:32:57;5.37;;;2.10;;
68216;SDS011;55037;52.354;4.992;2023-07-31T13:35:24;7.72;;;2.38;;
68216;SDS011;55037;52.354;4.992;2023-07-31T13:37:52;5.32;;;1.70;;
68216;SDS011;55037;52.354;4.992;2023-07-31T13:40:19;11.68;;;3.00;;
68216;SDS011;55037;52.354;4.992;2023-07-31T13:42:46;8.80;;;2.75;;
68216;SDS011;55037;52.354;4.992;2023-07-31T13:45:15;6.17;;;2.37;;
68216;SDS011;55037;52.354;4.992;2023-07-31T13:47:42;6.35;;;2.28;;
68216;SDS011;55037;52.354;4.992;2023-07-31T13:50:09;6.10;;;1.95;;
68216;SDS011;55037;52.354;4.992;2023-07-31T13:52:37;5.28;;;2.00;;
68216;SDS011;55037;52.354;4.992;2023-07-31T13:55:04;7.78;;;2.50;;
68216;SDS011;55037;52.354;4.992;2023-07-31T13:57:32;4.40;;;1.50;;
68216;SDS011;55037;52.354;4.992;2023-07-31T13:59:59;5.70;;;2.00;;
68216;SDS011;55037;52.354;4.992;2023-07-31T14:02:27;4.25;;;1.63;;
68216;SDS011;55037;52.354;4.992;2023-07-31T14:04:54;3.33;;;1.63;;
68216;SDS011;55037;52.354;4.992;2023-07-31T14:07:21;2.63;;;1.50;;
68216;SDS011;55037;52.354;4.992;2023-07-31T14:09:49;2.83;;;1.47;;
68216;SDS011;55037;52.354;4.992;2023-07-31T14:12:16;5.57;;;2.15;;
68216;SDS011;55037;52.354;4.992;2023-07-31T14:15:03;3.70;;;1.60;;
68216;SDS011;55037;52.354;4.992;2023-07-31T14:17:31;4.88;;;2.20;;
68216;SDS011;55037;52.354;4.992;2023-07-31T14:19:59;6.57;;;1.65;;
68216;SDS011;55037;52.354;4.992;2023-07-31T14:22:27;4.83;;;1.63;;
68216;SDS011;55037;52.354;4.992;2023-07-31T14:24:56;5.40;;;2.20;;
68216;SDS011;55037;52.354;4.992;2023-07-31T14:27:25;6.28;;;1.80;;
68216;SDS011;55037;52.354;4.992;2023-07-31T14:29:52;7.60;;;1.90;;
68216;SDS011;55037;52.354;4.992;2023-07-31T14:32:20;7.40;;;2.10;;
68216;SDS011;55037;52.354;4.992;2023-07-31T14:34:50;7.10;;;2.10;;
68216;SDS011;55037;52.354;4.992;2023-07-31T14:37:18;8.68;;;2.67;;
68216;SDS011;55037;52.354;4.992;2023-07-31T14:39:45;7.72;;;2.50;;
68216;SDS011;55037;52.354;4.992;2023-07-31T14:42:12;10.77;;;3.00;;
68216;SDS011;55037;52.354;4.992;2023-07-31T14:44:40;6.78;;;2.40;;
68216;SDS011;55037;52.354;4.992;2023-07-31T14:47:07;7.95;;;2.83;;
68216;SDS011;55037;52.354;4.992;2023-07-31T14:49:34;7.88;;;2.42;;
68216;SDS011;55037;52.354;4.992;2023-07-31T14:52:02;11.40;;;3.28;;
68216;SDS011;55037;52.354;4.992;2023-07-31T14:54:29;9.65;;;2.45;;
68216;SDS011;55037;52.354;4.992;2023-07-31T14:56:56;8.43;;;2.45;;
68216;SDS011;55037;52.354;4.992;2023-07-31T14:59:24;10.27;;;3.53;;
68216;SDS011;55037;52.354;4.992;2023-07-31T15:01:51;6.63;;;2.10;;
68216;SDS011;55037;52.354;4.992;2023-07-31T15:04:19;7.93;;;2.42;;